Fsl New York — 9VBQ8 — position and weather

sailwx.info

Track history (hours):
 
Tides and Currents Weather Stations Pressure Air Temp Water Temp Dewpoint Dewpoint Depression Visibility Wind Speed Wind Dir Waves Ship Positions

Fsl New York

Last reported at 2016-Dec-05 05:33 UTC. Time now 2016-Dec-10 22:22 UTC.
Position N 35°58' W 007°13'.

Length 145 m; draft 8 m.

Type: Tanker. MMSI: 565174000.

Date/timePositionNaut miles runAvg speedWind from/ knotsBaromVisibWave heightAir tempDewpointWater temp
2016-Dec-05 05:33N 35°58' W 007°13'1111.2
2016-Dec-05 04:33N 35°58' W 006°59'4711.2
2016-Dec-05 00:21N 35°58' W 006°01'911.6
2016-Dec-04 23:33N 35°58' W 005°49'1111.3
2016-Dec-04 22:33N 35°58' W 005°36'1310.0
2016-Dec-04 21:15N 36°07' W 005°24'  
2016-Dec-01 14:07N 36°01' W 005°23'7 0.2
2016-Nov-30 03:16N 35°59' W 005°31'913.1
2016-Nov-30 02:33N 36°03' W 005°20'12213.6
2016-Nov-29 17:33N 36°27' W 002°51'1414.4
2016-Nov-29 16:33N 36°26' W 002°34'  
2016-Nov-27 05:16N 37°02' E 013°31'1013.5
2016-Nov-27 04:33N 36°58' E 013°42'1413.6
2016-Nov-27 03:33N 36°51' E 013°57'1413.7
2016-Nov-27 02:34N 36°45' E 014°12'1313.3
2016-Nov-27 01:34N 36°39' E 014°27'10011.9
2016-Nov-26 17:08N 37°29' E 016°16'  
Track history (hours):
 
Tides and Currents Weather Stations Pressure Air Temp Water Temp Dewpoint Dewpoint Depression Visibility Wind Speed Wind Dir Waves Ship Positions

Fsl New York

Last reported at 2016-Dec-05 05:33 UTC. Time now 2016-Dec-10 22:22 UTC.
Position N 35°58' W 007°13'.

Length 145 m; draft 8 m.

Type: Tanker. MMSI: 565174000.

Date/timePositionNaut miles runAvg speedWind from/ knotsBaromVisibWave heightAir tempDewpointWater temp
2016-Dec-05 05:33N 35°58' W 007°13'1111.2
2016-Dec-05 04:33N 35°58' W 006°59'4711.2
2016-Dec-05 00:21N 35°58' W 006°01'911.6
2016-Dec-04 23:33N 35°58' W 005°49'1111.3
2016-Dec-04 22:33N 35°58' W 005°36'1310.0
2016-Dec-04 21:15N 36°07' W 005°24'  
2016-Dec-01 14:07N 36°01' W 005°23'7 0.2
2016-Nov-30 03:16N 35°59' W 005°31'913.1
2016-Nov-30 02:33N 36°03' W 005°20'12213.6
2016-Nov-29 17:33N 36°27' W 002°51'1414.4
2016-Nov-29 16:33N 36°26' W 002°34'  
2016-Nov-27 05:16N 37°02' E 013°31'1013.5
2016-Nov-27 04:33N 36°58' E 013°42'1413.6
2016-Nov-27 03:33N 36°51' E 013°57'1413.7
2016-Nov-27 02:34N 36°45' E 014°12'1313.3
2016-Nov-27 01:34N 36°39' E 014°27'10011.9
2016-Nov-26 17:08N 37°29' E 016°16'  

Dump ship's entire track history